Oakville, CA

11:27 PM PDT on October 24, 2014 (GMT -0700)
Sonoma County | Change Station
CLOSE
Current Station
Airport
Location: Santa Rosa,
Elevation: 125 ft
Nearby Weather Stations

Elev 125 ft 38.50 °N, 122.81 °W | Updated 34 minutes ago

Mostly Cloudy
Mostly Cloudy
63 °F
Feels Like 63 °F
N
5
Wind Variable Wind from SSE

Today
High -- | Low -- °F
--% Chance of Precip.
Yesterday
High -- | Low -- °F
Precip. -- in
7:27 AM 6:19 PM
New Moon, 2% visible
Pressure 29.88 in
Visibility 10.0 miles
Clouds Scattered Clouds 2700 ft
Overcast 4200 ft
Dew Point 56 °F
Humidity 78%
Rainfall 0.00 in
Snow Depth Not available.
UV 0 out of 12
Pollen 3.50 out of 12
Ozone Good
PM2.5 Good
Flu Activity Sporadic
METAR KSTS 250553Z AUTO 15004KT 10SM SCT027 OVC042 17/13 A2990 RMK AO2 SLP117 60000 T01720133 10194 20161 53005

More Conditions Fewer Conditions

Pressure 29.88 in
Visibility 10.0 miles
Clouds Scattered Clouds 2700 ft
Overcast 4200 ft
Dew Point 56 °F
Humidity 78%
Rainfall 0.00 in
Snow Depth Not available.
UV 0 out of 12
Pollen 3.50 out of 12
Ozone Good
PM2.5 Good
Flu Activity Sporadic
METAR KSTS 250553Z AUTO 15004KT 10SM SCT027 OVC042 17/13 A2990 RMK AO2 SLP117 60000 T01720133 10194 20161 53005

More Conditions Fewer Conditions

10-Day Weather Forecast

Almanac

Astronomy

Oct. 24, 2014 Rise Set
Actual Time 7:27 AM PDT 6:19 PM PDT
Civil Twilight 7:00 AM PDT 6:46 PM PDT
Nautical Twilight 6:29 AM PDT 7:17 PM PDT
Astronomical Twilight 5:58 AM PDT 7:47 PM PDT
Moon 8:11 AM PDT (10/24) 7:03 PM PDT (10/24)
Length of Visible Light 11h 45m
Length of Day
10h 51m
Tomorrow will be 2m 18s shorter.
New Moon, 2% of the Moon is Illuminated
Oct 25
New Moon
Oct 30
First Quarter
Nov 6
Full
Nov 14
Last Quarter
Nov 22
New

Community

WunderPhotos

Upload Photos

1,764,785 photos uploaded!

Nearby

Air Quality

  Air Quality AQ Index Pollutant
Yesterday Good
PM2.5
Yesterday Good
OZONE
Current Good
OZONE
Current Good
PM2.5
Friday Good
PM2.5
Saturday Good
OZONE
Sunday Moderate
PM2.5
Monday Moderate
PM2.5
Tuesday Moderate
PM2.5
Wednesday Moderate
PM2.5

Snow Depth

Station Depth Elevation
Squaw Valley 0 in 8200 ft
Rubicon #2 1 in 7500 ft
Echo Peak 1 in 7800 ft
Independence Lake 0 in 8450 ft
Tahoe City Cross 0 in 6750 ft

Earthquake Activity

City Distance Mag. Time & Date
No recent earthquake activity has been reported nearby.
Minimum magnitude displayed is 2.5.

Coastal Water Temperatures

Place Temperature
San Francisco, CA 64.0 °F
Richmond, CA 64.0 °F
Port Chicago, CA 66.0 °F

Nearby Weather Stations